createdAt,value
2023-02-09T00:00:44.869Z,10.24
2023-02-09T00:05:50.383Z,8.52
2023-02-09T00:10:57.080Z,9.43
2023-02-09T00:16:04.184Z,8.82
2023-02-09T00:21:10.945Z,10.14
2023-02-09T00:26:17.943Z,11.97
2023-02-09T00:31:25.357Z,10.24
2023-02-09T00:36:31.128Z,6.59
2023-02-09T00:41:38.764Z,5.98
2023-02-09T00:46:44.979Z,5.98
2023-02-09T00:51:51.317Z,9.02
2023-02-09T00:56:57.553Z,9.23
2023-02-09T01:02:04.219Z,7.81
2023-02-09T01:07:10.541Z,11.05
2023-02-09T01:12:19.218Z,8.92
2023-02-09T01:17:26.266Z,11.15
2023-02-09T01:22:32.868Z,10.95
2023-02-09T01:27:40.088Z,15.41
2023-02-09T01:32:46.888Z,9.33
2023-02-09T01:37:54.223Z,6.29
2023-02-09T01:43:00.581Z,10.95
2023-02-09T01:48:06.642Z,9.94
2023-02-09T01:53:15.336Z,8.92
2023-02-09T01:58:22.377Z,10.04
2023-02-09T02:03:28.936Z,11.26
2023-02-09T02:08:36.337Z,9.63
2023-02-09T02:13:44.801Z,10.75
2023-02-09T02:18:51.896Z,13.59
2023-02-09T02:23:58.250Z,8.11
2023-02-09T02:29:04.326Z,11.86
2023-02-09T02:34:10.810Z,11.36
2023-02-09T02:39:16.835Z,13.49
2023-02-09T02:44:23.355Z,10.65
2023-02-09T02:49:29.509Z,11.66
2023-02-09T02:54:36.161Z,11.36
2023-02-09T02:59:42.254Z,12.37
2023-02-09T03:04:50.696Z,10.24
2023-02-09T03:09:56.736Z,11.86
2023-02-09T03:15:03.214Z,10.75
2023-02-09T03:20:10.384Z,7.71
2023-02-09T03:25:16.662Z,10.14
2023-02-09T03:30:22.904Z,6.59
2023-02-09T03:35:29.205Z,10.55
2023-02-09T03:40:35.492Z,11.05
2023-02-09T03:45:42.213Z,7.50
2023-02-09T03:50:48.292Z,12.07
2023-02-09T03:55:54.762Z,10.44
2023-02-09T04:01:01.938Z,8.52
2023-02-09T04:06:08.487Z,9.94
2023-02-09T04:11:16.832Z,9.94
2023-02-09T04:16:23.310Z,7.20
2023-02-09T04:21:30.398Z,11.46
2023-02-09T04:26:37.050Z,11.05
2023-02-09T04:31:43.236Z,11.26
2023-02-09T04:36:50.832Z,12.37
2023-02-09T04:41:58.024Z,11.46
2023-02-09T04:47:04.708Z,13.89
2023-02-09T04:52:11.704Z,11.76
2023-02-09T04:57:19.371Z,10.24
2023-02-09T05:02:25.466Z,10.34
2023-02-09T05:07:31.674Z,10.65
2023-02-09T05:12:38.063Z,8.42
2023-02-09T05:17:44.559Z,12.37
2023-02-09T05:22:50.664Z,13.18
2023-02-09T05:27:57.460Z,14.20
2023-02-09T05:33:03.592Z,15.62
2023-02-09T05:38:10.313Z,13.18
2023-02-09T05:43:16.274Z,9.84
2023-02-09T05:48:22.579Z,6.59
2023-02-09T05:53:29.176Z,11.76
2023-02-09T05:58:36.669Z,12.37
2023-02-09T06:03:41.968Z,10.85
2023-02-09T06:08:48.641Z,10.75
2023-02-09T06:13:54.698Z,8.42
2023-02-09T06:19:03.200Z,10.24
2023-02-09T06:24:09.503Z,11.86
2023-02-09T06:29:16.146Z,6.08
2023-02-09T06:34:22.312Z,10.95
2023-02-09T06:39:29.030Z,21.60
2023-02-09T06:44:35.121Z,9.94
2023-02-09T06:49:41.642Z,16.83
2023-02-09T06:54:47.833Z,9.43
2023-02-09T06:59:54.660Z,13.59
2023-02-09T07:05:01.919Z,11.46
2023-02-09T07:10:08.650Z,11.86
2023-02-09T07:15:14.746Z,10.55
2023-02-09T07:20:21.382Z,9.63
2023-02-09T07:25:27.632Z,10.34
2023-02-09T07:30:35.357Z,7.61
2023-02-09T07:35:42.729Z,7.50
2023-02-09T07:40:50.259Z,8.82
2023-02-09T07:45:56.466Z,11.97
2023-02-09T07:51:03.174Z,10.24
2023-02-09T07:56:09.305Z,7.40
2023-02-09T08:01:15.767Z,9.94
2023-02-09T08:06:24.286Z,6.08
2023-02-09T08:11:27.637Z,9.33
2023-02-09T08:16:33.795Z,10.85
2023-02-09T08:21:41.428Z,9.23
2023-02-09T08:26:47.553Z,10.85
2023-02-09T08:31:54.036Z,8.62
2023-02-09T08:37:01.092Z,6.90
2023-02-09T08:42:07.470Z,9.43
2023-02-09T08:47:13.750Z,9.84
2023-02-09T08:52:20.069Z,6.19
2023-02-09T08:57:38.371Z,11.36
2023-02-09T09:02:32.313Z,10.14
2023-02-09T09:07:38.577Z,10.34
2023-02-09T09:12:44.922Z,11.26
2023-02-09T09:17:53.356Z,6.08
2023-02-09T09:22:59.638Z,9.94
2023-02-09T09:28:05.975Z,8.42
2023-02-09T09:33:12.321Z,9.63
2023-02-09T09:38:20.484Z,12.27
2023-02-09T09:43:26.883Z,10.04
2023-02-09T09:48:34.085Z,6.90
2023-02-09T09:53:40.845Z,5.88
2023-02-09T09:59:00.095Z,9.73
2023-02-09T10:03:56.622Z,5.68
2023-02-09T10:09:03.724Z,7.00
2023-02-09T10:14:10.062Z,7.00
2023-02-09T10:19:16.403Z,5.68
2023-02-09T10:24:22.787Z,8.31
2023-02-09T10:29:29.267Z,10.34
2023-02-09T10:34:35.839Z,5.98
2023-02-09T10:39:42.149Z,6.19
2023-02-09T10:44:49.607Z,9.33
2023-02-09T10:49:56.682Z,6.29
2023-02-09T10:55:03.398Z,6.59
2023-02-09T11:00:09.719Z,5.98
2023-02-09T11:05:17.297Z,5.58
2023-02-09T11:10:23.463Z,6.49
2023-02-09T11:15:30.109Z,5.37
2023-02-09T11:20:36.261Z,5.98
2023-02-09T11:25:42.564Z,6.19
2023-02-09T11:30:49.496Z,5.78
2023-02-09T11:35:55.052Z,5.07
2023-02-09T11:41:01.173Z,5.48
2023-02-09T11:46:07.898Z,5.68
2023-02-09T11:51:14.166Z,6.39
2023-02-09T11:56:20.773Z,4.56
2023-02-09T12:01:27.875Z,5.37
2023-02-09T12:06:34.540Z,4.97
2023-02-09T12:11:40.790Z,2.74
2023-02-09T12:16:47.118Z,5.98
2023-02-09T12:21:54.177Z,5.07
2023-02-09T12:27:00.610Z,3.65
2023-02-09T12:32:06.825Z,4.06
2023-02-09T12:37:13.516Z,4.77
2023-02-09T12:42:19.697Z,5.88
2023-02-09T12:47:26.150Z,1.32
2023-02-09T12:52:33.521Z,3.55
2023-02-09T12:57:39.837Z,2.13
2023-02-09T13:02:45.897Z,1.22
2023-02-09T13:07:52.763Z,5.07
2023-02-09T13:12:59.494Z,5.88
2023-02-09T13:18:06.566Z,1.72
2023-02-09T13:23:12.934Z,4.06
2023-02-09T13:28:21.123Z,4.36
2023-02-09T13:33:27.296Z,0.51
2023-02-09T13:38:33.750Z,0.00
2023-02-09T13:43:41.843Z,1.83
2023-02-09T13:48:49.393Z,1.32
2023-02-09T13:53:55.554Z,4.26
2023-02-09T13:59:02.151Z,2.13
2023-02-09T14:04:08.317Z,2.13
2023-02-09T14:09:15.162Z,0.51
2023-02-09T14:14:22.424Z,1.12
2023-02-09T14:19:29.806Z,5.68
2023-02-09T14:24:37.024Z,0.00
2023-02-09T14:29:43.418Z,4.77
2023-02-09T14:34:50.677Z,0.20
2023-02-09T14:39:57.508Z,2.33
2023-02-09T14:45:03.595Z,3.65
2023-02-09T14:50:10.923Z,3.14
2023-02-09T14:55:17.167Z,4.26
2023-02-09T15:00:24.202Z,5.17
2023-02-09T15:05:31.564Z,6.59
2023-02-09T15:10:38.266Z,4.46
2023-02-09T15:15:44.577Z,5.48
2023-02-09T15:20:51.166Z,5.07
2023-02-09T15:25:58.452Z,5.48
2023-02-09T15:31:05.036Z,6.19
2023-02-09T15:36:12.310Z,8.01
2023-02-09T15:41:19.048Z,5.58
2023-02-09T15:46:25.445Z,6.19
2023-02-09T15:51:31.860Z,6.19
2023-02-09T15:56:40.165Z,5.68
2023-02-09T16:01:46.933Z,5.98
2023-02-09T16:06:55.423Z,8.31
2023-02-09T16:12:06.508Z,5.98
2023-02-09T16:17:02.549Z,5.98
2023-02-09T16:22:11.058Z,6.08
2023-02-09T16:27:17.340Z,6.19
2023-02-09T16:32:24.119Z,5.98
2023-02-09T16:37:30.537Z,10.14
2023-02-09T16:42:36.742Z,4.16
2023-02-09T16:47:42.946Z,5.27
2023-02-09T16:52:50.083Z,6.69
2023-02-09T16:57:57.405Z,5.98
2023-02-09T17:03:04.190Z,7.61
2023-02-09T17:08:34.389Z,5.68
2023-02-09T17:13:10.906Z,7.20
2023-02-09T17:18:18.209Z,7.00
2023-02-09T17:23:25.763Z,7.91
2023-02-09T17:28:32.142Z,6.90
2023-02-09T17:33:38.604Z,6.08
2023-02-09T17:38:45.142Z,8.31
2023-02-09T17:43:52.974Z,10.95
2023-02-09T17:49:00.369Z,9.53
2023-02-09T17:54:06.931Z,8.42
2023-02-09T17:59:12.905Z,8.42
2023-02-09T18:04:19.502Z,7.91
2023-02-09T18:09:27.566Z,9.43
2023-02-09T18:14:34.350Z,6.90
2023-02-09T18:19:40.345Z,6.39
2023-02-09T18:24:48.109Z,6.39
2023-02-09T18:29:54.258Z,12.07
2023-02-09T18:35:00.541Z,7.30
2023-02-09T18:40:06.725Z,5.98
2023-02-09T18:45:14.028Z,8.72
2023-02-09T18:50:20.338Z,8.31
2023-02-09T18:55:26.719Z,10.24
2023-02-09T19:00:34.127Z,5.98
2023-02-09T19:05:40.477Z,5.98
2023-02-09T19:10:46.678Z,5.98
2023-02-09T19:15:53.308Z,8.82
2023-02-09T19:21:00.565Z,12.07
2023-02-09T19:26:09.305Z,10.34
2023-02-09T19:31:15.560Z,11.05
2023-02-09T19:36:22.004Z,8.11
2023-02-09T19:41:28.336Z,9.63
2023-02-09T19:46:35.032Z,7.10
2023-02-09T19:51:40.996Z,12.88
2023-02-09T19:56:47.432Z,9.84
2023-02-09T20:01:53.565Z,11.05
2023-02-09T20:07:00.398Z,9.73
2023-02-09T20:12:06.586Z,8.21
2023-02-09T20:17:13.266Z,9.84
2023-02-09T20:22:19.503Z,5.98
2023-02-09T20:27:27.250Z,6.59
2023-02-09T20:32:33.389Z,9.13
2023-02-09T20:37:40.161Z,8.42
2023-02-09T20:42:46.557Z,9.02
2023-02-09T20:47:55.458Z,5.58
2023-02-09T20:53:01.684Z,11.15
2023-02-09T20:58:11.911Z,9.23
2023-02-09T21:03:17.754Z,10.24
2023-02-09T21:08:25.799Z,11.26
2023-02-09T21:13:32.162Z,5.98
2023-02-09T21:18:38.769Z,9.33
2023-02-09T21:23:45.133Z,6.29
2023-02-09T21:28:51.817Z,11.05
2023-02-09T21:33:58.565Z,8.11
2023-02-09T21:39:05.278Z,9.53
2023-02-09T21:44:12.752Z,10.65
2023-02-09T21:49:19.544Z,10.75
2023-02-09T21:54:27.471Z,10.85
2023-02-09T21:59:32.046Z,7.61
2023-02-09T22:04:39.481Z,8.92
2023-02-09T22:09:46.140Z,9.84
2023-02-09T22:14:52.520Z,8.72
2023-02-09T22:19:58.988Z,9.43
2023-02-09T22:25:05.389Z,7.81
2023-02-09T22:30:13.497Z,10.75
2023-02-09T22:35:19.944Z,10.65
2023-02-09T22:40:27.407Z,6.90
2023-02-09T22:45:34.828Z,9.84
2023-02-09T22:50:41.970Z,12.68
2023-02-09T22:55:48.594Z,9.84
2023-02-09T23:00:54.449Z,11.76
2023-02-09T23:06:01.002Z,11.76
2023-02-09T23:11:07.436Z,10.14
2023-02-09T23:16:13.931Z,7.50
2023-02-09T23:21:20.202Z,5.88
2023-02-09T23:26:26.372Z,12.57
2023-02-09T23:31:33.139Z,7.91
2023-02-09T23:36:40.542Z,11.66
2023-02-09T23:41:47.276Z,6.19
2023-02-09T23:46:53.628Z,12.07
2023-02-09T23:52:00.620Z,9.13
2023-02-09T23:57:26.019Z,10.85
